createdAt,value
2023-01-19T00:02:16.711Z,7.38
2023-01-19T00:07:20.239Z,7.03
2023-01-19T00:12:22.453Z,7.70
2023-01-19T00:17:24.623Z,8.10
2023-01-19T00:22:28.366Z,7.40
2023-01-19T00:27:34.973Z,6.88
2023-01-19T00:32:37.228Z,7.10
2023-01-19T00:37:40.897Z,6.80
2023-01-19T00:42:44.730Z,7.45
2023-01-19T00:47:47.813Z,7.47
2023-01-19T00:52:54.248Z,6.90
2023-01-19T00:57:57.102Z,8.60
2023-01-19T01:03:02.910Z,8.15
2023-01-19T01:08:06.724Z,7.97
2023-01-19T01:13:20.275Z,8.68
2023-01-19T01:18:24.056Z,8.70
2023-01-19T01:23:27.767Z,8.02
2023-01-19T01:28:29.987Z,8.02
2023-01-19T01:33:39.996Z,7.50
2023-01-19T01:38:45.002Z,7.28
2023-01-19T01:43:49.469Z,7.68
2023-01-19T01:48:56.488Z,7.45
2023-01-19T01:54:13.398Z,7.50
2023-01-19T01:59:26.131Z,8.10
2023-01-19T02:04:28.410Z,7.82
2023-01-19T02:09:52.895Z,7.07
2023-01-19T02:14:55.604Z,8.23
2023-01-19T02:19:58.187Z,6.82
2023-01-19T02:25:03.099Z,7.15
2023-01-19T02:30:06.183Z,8.32
2023-01-19T02:35:09.037Z,7.07
2023-01-19T02:40:19.787Z,7.03
2023-01-19T02:45:23.803Z,7.00
2023-01-19T02:50:46.329Z,7.82
2023-01-19T02:55:55.151Z,7.20
2023-01-19T03:01:08.670Z,6.50
2023-01-19T03:06:20.154Z,6.30
2023-01-19T03:11:28.664Z,6.78
2023-01-19T03:16:36.756Z,5.75
2023-01-19T03:21:43.171Z,6.20
2023-01-19T03:26:50.674Z,6.32
2023-01-19T03:31:58.230Z,6.13
2023-01-19T03:37:05.201Z,6.50
2023-01-19T03:42:12.710Z,6.70
2023-01-19T03:47:16.512Z,7.70
2023-01-19T03:52:18.712Z,6.70
2023-01-19T03:57:22.303Z,7.70
2023-01-19T04:02:24.969Z,7.57
2023-01-19T04:07:27.148Z,7.60
2023-01-19T04:12:30.900Z,8.98
2023-01-19T04:17:33.401Z,8.65
2023-01-19T04:22:35.719Z,7.95
2023-01-19T04:27:39.310Z,9.13
2023-01-19T04:32:41.485Z,10.15
2023-01-19T04:37:44.969Z,8.73
2023-01-19T04:42:48.593Z,9.82
2023-01-19T04:47:52.307Z,9.50
2023-01-19T04:52:54.460Z,9.50
2023-01-19T04:57:58.280Z,9.77
2023-01-19T05:03:01.667Z,10.18
2023-01-19T06:00:45.808Z,11.38
2023-01-19T06:05:48.088Z,12.40
2023-01-19T06:10:50.252Z,11.93
2023-01-19T06:15:59.651Z,13.05
2023-01-19T06:21:05.486Z,11.80
2023-01-19T06:26:07.830Z,13.20
2023-01-19T06:31:11.562Z,11.88
2023-01-19T06:36:13.808Z,10.77
2023-01-19T06:41:16.145Z,10.00
2023-01-19T06:46:19.717Z,11.35
2023-01-19T06:51:22.078Z,11.77
2023-01-19T06:56:24.345Z,11.50
2023-01-19T07:01:28.461Z,13.55
2023-01-19T07:06:30.701Z,10.85
2023-01-19T07:11:33.137Z,10.32
2023-01-19T07:16:36.825Z,9.63
2023-01-19T07:21:39.188Z,8.50
2023-01-19T07:26:41.363Z,9.63
2023-01-19T07:31:44.961Z,8.27
2023-01-19T07:36:47.191Z,12.00
2023-01-19T07:41:49.804Z,9.52
2023-01-19T07:46:55.906Z,12.60
2023-01-19T07:51:58.074Z,11.35
2023-01-19T07:57:00.868Z,9.30
2023-01-19T08:02:04.631Z,10.90
2023-01-19T08:07:06.942Z,10.30
2023-01-19T08:12:09.200Z,10.18
2023-01-19T08:17:14.459Z,9.77
2023-01-19T08:22:16.641Z,9.80
2023-01-19T08:27:19.047Z,9.32
2023-01-19T08:32:22.624Z,9.60
2023-01-19T08:37:25.274Z,11.07
2023-01-19T08:42:28.163Z,10.30
2023-01-19T08:47:32.328Z,9.57
2023-01-19T08:52:34.515Z,9.25
2023-01-19T08:57:36.690Z,8.77
2023-01-19T09:02:40.307Z,9.43
2023-01-19T09:07:42.816Z,8.10
2023-01-19T09:12:46.506Z,11.02
2023-01-19T09:17:50.137Z,8.25
2023-01-19T09:22:52.361Z,7.78
2023-01-19T09:27:56.178Z,7.30
2023-01-19T09:33:04.723Z,7.03
2023-01-19T09:38:07.545Z,6.70
2023-01-19T09:43:16.607Z,7.13
2023-01-19T09:48:29.771Z,6.25
2023-01-19T09:53:44.924Z,8.20
2023-01-19T09:58:47.858Z,7.55
2023-01-19T10:04:01.673Z,6.70
2023-01-19T10:09:11.342Z,6.07
2023-01-19T10:14:21.032Z,6.93
2023-01-19T10:19:29.940Z,6.05
2023-01-19T10:24:38.931Z,6.80
2023-01-19T10:29:41.147Z,8.95
2023-01-19T10:34:44.824Z,11.38
2023-01-19T10:39:48.487Z,10.60
2023-01-19T10:44:51.268Z,10.27
2023-01-19T10:49:55.235Z,8.00
2023-01-19T10:54:59.169Z,7.47
2023-01-19T11:00:01.416Z,7.57
2023-01-19T11:05:24.243Z,6.53
2023-01-19T11:10:28.569Z,6.20
2023-01-19T11:15:34.905Z,6.70
2023-01-19T11:20:49.195Z,5.82
2023-01-19T11:25:55.560Z,5.20
2023-01-19T11:30:59.906Z,5.80
2023-01-19T11:36:08.328Z,5.22
2023-01-19T11:41:19.203Z,3.40
2023-01-19T11:46:23.759Z,4.40
2023-01-19T11:51:31.303Z,4.70
2023-01-19T11:56:33.533Z,4.57
2023-01-19T12:01:41.252Z,4.28
2023-01-19T12:06:47.830Z,5.20
2023-01-19T12:11:54.571Z,3.83
2023-01-19T12:17:01.451Z,5.57
2023-01-19T12:22:05.910Z,5.93
2023-01-19T12:27:16.734Z,4.80
2023-01-19T12:32:20.651Z,4.68
2023-01-19T12:37:42.404Z,8.68
2023-01-19T12:42:47.667Z,5.38
2023-01-19T12:47:53.174Z,5.72
2023-01-19T12:52:59.833Z,5.60
2023-01-19T12:58:08.628Z,5.35
2023-01-19T13:03:55.922Z,5.60
2023-01-19T13:09:01.668Z,4.60
2023-01-19T13:14:36.718Z,4.68
2023-01-19T13:19:46.528Z,5.55
2023-01-19T13:25:08.832Z,6.25
2023-01-19T13:30:18.985Z,9.25
2023-01-19T13:35:22.118Z,13.00
2023-01-19T13:40:30.971Z,16.58
2023-01-19T13:45:35.462Z,17.20
2023-01-19T13:50:39.823Z,18.00
2023-01-19T13:55:43.659Z,14.95
2023-01-19T14:00:47.525Z,16.08
2023-01-19T14:05:52.777Z,17.35
2023-01-19T14:11:04.336Z,16.73
2023-01-19T14:16:08.733Z,16.48
2023-01-19T14:21:15.269Z,15.52
2023-01-19T14:26:46.507Z,15.20
2023-01-19T14:31:50.911Z,13.85
2023-01-19T14:36:53.541Z,15.07
2023-01-19T14:42:00.490Z,12.68
2023-01-19T14:47:03.587Z,16.80
2023-01-19T14:52:09.746Z,14.82
2023-01-19T14:57:15.449Z,16.88
2023-01-19T15:02:19.716Z,19.52
2023-01-19T15:07:23.799Z,18.60
2023-01-19T15:12:30.068Z,17.83
2023-01-19T15:17:32.654Z,19.05
2023-01-19T15:22:35.106Z,18.38
2023-01-19T15:27:38.879Z,18.33
2023-01-19T15:32:43.949Z,17.08
2023-01-19T15:37:46.571Z,17.92
2023-01-19T15:42:50.978Z,16.35
2023-01-19T15:47:53.452Z,18.65
2023-01-19T15:52:55.885Z,17.90
2023-01-19T15:58:01.764Z,16.90
2023-01-19T16:03:04.601Z,19.00
2023-01-19T16:08:07.281Z,19.50
2023-01-19T16:13:12.726Z,18.23
2023-01-19T16:18:15.179Z,16.58
2023-01-19T16:23:17.542Z,29.33
2023-01-19T16:28:21.485Z,18.83
2023-01-19T16:33:24.189Z,16.58
2023-01-19T16:38:26.962Z,16.38
2023-01-19T16:43:30.746Z,17.65
2023-01-19T16:48:33.492Z,17.27
2023-01-19T16:53:37.012Z,17.17
2023-01-19T16:58:41.859Z,16.45
2023-01-19T17:03:45.230Z,15.93
2023-01-19T17:08:48.511Z,16.85
2023-01-19T17:13:56.415Z,15.13
2023-01-19T17:19:01.169Z,16.25
2023-01-19T17:24:06.007Z,15.45
2023-01-19T17:29:17.761Z,15.80
2023-01-19T17:34:21.231Z,16.52
2023-01-19T17:39:24.547Z,14.63
2023-01-19T17:44:29.757Z,15.52
2023-01-19T17:49:33.647Z,15.82
2023-01-19T17:54:41.499Z,19.48
2023-01-19T17:59:47.861Z,15.27
2023-01-19T18:04:51.186Z,14.80
2023-01-19T18:09:57.386Z,17.98
2023-01-19T18:15:05.482Z,14.63
2023-01-19T18:20:11.331Z,15.70
2023-01-19T18:25:15.175Z,15.50
2023-01-19T18:30:21.794Z,17.00
2023-01-19T18:35:24.545Z,14.82
2023-01-19T18:40:28.798Z,17.27
2023-01-19T18:45:33.208Z,17.40
2023-01-19T18:50:37.407Z,14.85
2023-01-19T18:55:41.208Z,14.60
2023-01-19T19:00:46.441Z,16.50
2023-01-19T19:05:51.563Z,16.35
2023-01-19T19:10:55.779Z,16.67
2023-01-19T19:16:06.982Z,18.48
2023-01-19T19:21:12.450Z,15.25
2023-01-19T19:26:15.873Z,15.43
2023-01-19T19:31:23.108Z,16.13
2023-01-19T19:36:33.661Z,17.02
2023-01-19T19:41:39.368Z,18.05
2023-01-19T19:46:44.463Z,17.27
2023-01-19T19:51:50.341Z,16.23
2023-01-19T19:56:56.165Z,17.30
2023-01-19T20:02:03.165Z,16.88
2023-01-19T20:07:07.116Z,18.50
2023-01-19T20:12:11.291Z,15.95
2023-01-19T20:17:16.118Z,18.98
2023-01-19T20:22:19.383Z,18.67
2023-01-19T20:27:25.685Z,18.15
2023-01-19T20:32:34.048Z,18.75
2023-01-19T20:37:37.952Z,19.02
2023-01-19T20:42:43.760Z,17.42
2023-01-19T20:47:50.655Z,17.80
2023-01-19T20:52:54.279Z,16.67
2023-01-19T20:57:56.819Z,17.75
2023-01-19T21:03:02.130Z,16.63
2023-01-19T21:08:05.586Z,16.80
2023-01-19T21:13:08.712Z,18.88
2023-01-19T21:18:12.839Z,18.52
2023-01-19T21:23:15.977Z,14.38
2023-01-19T21:28:19.657Z,17.27
2023-01-19T21:33:23.986Z,20.45
2023-01-19T21:38:27.892Z,17.20
2023-01-19T21:43:30.364Z,16.00
2023-01-19T21:48:34.039Z,16.80
2023-01-19T21:53:36.381Z,16.27
2023-01-19T21:58:38.726Z,15.68
2023-01-19T22:03:42.814Z,15.25
2023-01-19T22:08:47.947Z,14.70
2023-01-19T22:13:50.405Z,12.95
2023-01-19T22:18:56.480Z,15.25
2023-01-19T22:24:00.510Z,14.48
2023-01-19T22:29:11.104Z,15.10
2023-01-19T22:34:17.109Z,13.55
2023-01-19T22:39:19.323Z,14.55
2023-01-19T22:44:23.205Z,15.02
2023-01-19T22:49:27.162Z,13.30
2023-01-19T22:54:30.038Z,14.95
2023-01-19T22:59:32.253Z,13.20
2023-01-19T23:04:35.955Z,11.32
2023-01-19T23:09:39.191Z,15.23
2023-01-19T23:14:41.417Z,13.25
2023-01-19T23:19:44.931Z,11.65
2023-01-19T23:24:47.106Z,10.88
2023-01-19T23:29:49.362Z,12.70
2023-01-19T23:34:52.991Z,12.00
2023-01-19T23:39:55.177Z,11.85
2023-01-19T23:44:57.332Z,11.30
2023-01-19T23:50:00.954Z,11.75
2023-01-19T23:55:03.196Z,13.73
